Time;durP1;ratioP1;P1;durP2;ratioP2;P2;SDS_P1;SDS_P2;PMS_P1;PMS_P2;Temp;Humidity;BMP_temperature;BMP_pressure;BME280_temperature;BME280_humidity;BME280_pressure;Samples;Min_cycle;Max_cycle;Signal;HPM_P1;HPM_P2
2024/03/30 00:01:23;;;;;;;12.27;11.37;;;13.90;1.00;;;;;;5018381;28;20264;-49
2024/03/30 00:03:49;;;;;;;11.80;11.10;;;14.00;1.00;;;;;;5020101;28;20540;-49
2024/03/30 00:06:14;;;;;;;11.67;11.07;;;14.00;1.00;;;;;;5019652;28;20227;-51
2024/03/30 00:08:41;;;;;;;12.77;11.87;;;14.10;1.00;;;;;;5020318;28;20558;-52
2024/03/30 00:11:06;;;;;;;12.37;11.47;;;14.10;1.00;;;;;;5018868;28;20186;-50
2024/03/30 00:13:32;;;;;;;11.20;10.67;;;14.10;1.00;;;;;;5020115;28;20802;-52
2024/03/30 00:16:11;;;;;;;11.90;11.00;;;14.10;1.00;;;;;;5019985;28;20270;-49
2024/03/30 00:18:37;;;;;;;11.87;11.03;;;14.20;1.00;;;;;;5019890;28;20465;-38
2024/03/30 00:21:03;;;;;;;11.90;11.17;;;14.20;1.00;;;;;;5020226;28;20433;-38
2024/03/30 00:23:32;;;;;;;11.70;11.00;;;14.20;1.00;;;;;;5020375;28;20969;-39
2024/03/30 00:25:59;;;;;;;11.90;11.20;;;14.20;1.00;;;;;;5020601;28;20194;-39
2024/03/30 00:28:25;;;;;;;11.97;11.07;;;14.20;1.00;;;;;;5019113;28;20467;-39
2024/03/30 00:30:52;;;;;;;11.63;10.97;;;14.20;1.00;;;;;;5019490;28;20523;-39
2024/03/30 00:33:18;;;;;;;12.20;11.20;;;14.20;1.00;;;;;;5019808;28;21014;-38
2024/03/30 00:35:45;;;;;;;11.30;10.70;;;14.20;1.00;;;;;;5019694;28;20896;-38
2024/03/30 00:38:12;;;;;;;11.97;11.17;;;14.20;1.00;;;;;;5019941;28;20422;-39
2024/03/30 00:40:39;;;;;;;12.00;11.30;;;14.20;1.00;;;;;;5019912;28;20500;-37
2024/03/30 00:43:05;;;;;;;11.97;11.27;;;14.20;1.00;;;;;;5019850;28;20460;-40
2024/03/30 00:45:31;;;;;;;12.23;11.33;;;14.20;1.00;;;;;;5019716;28;20417;-40
2024/03/30 00:47:57;;;;;;;11.90;11.10;;;14.20;1.00;;;;;;5020383;28;20428;-39
2024/03/30 00:50:23;;;;;;;12.10;11.40;;;14.20;1.00;;;;;;5019832;28;20179;-40
2024/03/30 00:52:48;;;;;;;12.33;11.50;;;14.20;1.00;;;;;;5019976;28;20270;-38
2024/03/30 00:55:14;;;;;;;12.10;11.27;;;14.20;1.00;;;;;;5019421;28;20183;-39
2024/03/30 00:57:42;;;;;;;11.10;10.50;;;14.20;1.00;;;;;;5020049;28;20285;-39
2024/03/30 01:00:14;;;;;;;12.87;11.87;;;14.20;1.00;;;;;;5019101;28;20217;-42
2024/03/30 01:02:43;;;;;;;11.33;10.67;;;14.10;1.00;;;;;;5019701;28;21608;-39
2024/03/30 01:05:09;;;;;;;12.43;11.70;;;14.20;1.00;;;;;;5023492;28;20425;-39
2024/03/30 01:07:35;;;;;;;11.73;10.83;;;14.20;1.00;;;;;;5023692;28;20983;-41
2024/03/30 01:10:06;;;;;;;11.37;10.77;;;14.20;1.00;;;;;;5023345;28;20434;-38
2024/03/30 01:12:33;;;;;;;11.30;10.60;;;14.20;1.00;;;;;;5023170;28;20417;-38
2024/03/30 01:14:58;;;;;;;12.30;11.53;;;14.20;1.00;;;;;;5023461;28;20449;-39
2024/03/30 01:17:24;;;;;;;12.37;11.47;;;14.20;1.00;;;;;;5022741;28;20587;-39
2024/03/30 01:19:50;;;;;;;11.47;10.77;;;14.20;1.00;;;;;;5023163;28;20190;-36
2024/03/30 01:22:16;;;;;;;11.53;10.83;;;14.20;1.00;;;;;;5022705;28;20456;-37
2024/03/30 01:24:42;;;;;;;11.60;10.90;;;14.20;1.00;;;;;;5022999;28;20886;-37
2024/03/30 01:27:11;;;;;;;12.03;11.23;;;14.10;1.00;;;;;;5022836;28;20424;-37
2024/03/30 01:29:37;;;;;;;12.10;11.03;;;14.20;1.00;;;;;;5020827;28;20961;-38
2024/03/30 01:32:03;;;;;;;11.40;10.53;;;14.10;1.00;;;;;;5022950;28;20944;-37
2024/03/30 01:34:32;;;;;;;11.67;11.07;;;14.20;1.00;;;;;;5022863;28;20425;-36
2024/03/30 01:36:57;;;;;;;11.90;11.20;;;14.20;1.00;;;;;;5021537;28;20491;-37
2024/03/30 01:39:23;;;;;;;12.63;11.47;;;14.20;1.00;;;;;;5022730;28;20433;-38
2024/03/30 01:41:49;;;;;;;12.77;11.70;;;14.20;1.00;;;;;;5022827;28;20477;-37
2024/03/30 01:44:14;;;;;;;11.63;10.93;;;14.20;1.00;;;;;;5022647;28;20186;-37
2024/03/30 01:46:40;;;;;;;12.07;11.17;;;14.20;1.00;;;;;;5022571;28;20252;-36
2024/03/30 01:49:07;;;;;;;11.93;11.23;;;14.20;1.00;;;;;;5022580;28;20189;-36
2024/03/30 01:51:34;;;;;;;11.87;10.97;;;14.20;1.00;;;;;;5022845;28;20512;-37
2024/03/30 01:54:01;;;;;;;12.37;11.57;;;14.20;1.00;;;;;;5022217;28;20429;-36
2024/03/30 01:56:28;;;;;;;11.60;11.00;;;14.20;1.00;;;;;;5022397;28;20923;-37
2024/03/30 01:58:54;;;;;;;11.60;10.90;;;14.30;1.00;;;;;;5022157;28;21635;-38
2024/03/30 02:01:20;;;;;;;11.80;11.20;;;14.30;1.00;;;;;;5021842;28;20487;-37
2024/03/30 02:03:47;;;;;;;12.23;11.43;;;14.30;1.00;;;;;;5022369;28;20581;-37
2024/03/30 02:06:13;;;;;;;11.87;11.07;;;14.40;1.00;;;;;;5022220;28;20508;-36
2024/03/30 02:08:40;;;;;;;11.57;10.93;;;14.40;1.00;;;;;;5021963;28;20418;-37
2024/03/30 02:11:08;;;;;;;11.77;11.10;;;14.40;1.00;;;;;;5021945;28;20422;-38
2024/03/30 02:13:34;;;;;;;12.20;11.40;;;14.40;1.00;;;;;;5022030;28;20748;-37
2024/03/30 02:15:59;;;;;;;11.30;10.70;;;14.40;1.00;;;;;;5021217;28;20520;-37
2024/03/30 02:18:25;;;;;;;11.80;10.80;;;14.40;1.00;;;;;;5021494;28;20565;-38
2024/03/30 02:20:50;;;;;;;12.33;11.43;;;14.40;1.00;;;;;;5022402;28;20201;-52
2024/03/30 02:23:16;;;;;;;11.43;10.70;;;14.40;1.00;;;;;;5020186;28;20223;-52
2024/03/30 02:25:42;;;;;;;11.40;10.80;;;14.40;1.00;;;;;;5022189;28;20592;-47
2024/03/30 02:28:08;;;;;;;12.30;11.10;;;14.40;1.00;;;;;;5021601;28;20183;-51
2024/03/30 02:30:33;;;;;;;11.50;10.70;;;14.40;1.00;;;;;;5020610;28;20190;-52
2024/03/30 02:33:00;;;;;;;11.47;10.87;;;14.40;1.00;;;;;;5021344;28;20225;-50
2024/03/30 02:35:27;;;;;;;11.63;10.93;;;14.40;1.00;;;;;;5021487;28;20522;-49
2024/03/30 02:37:53;;;;;;;11.60;10.90;;;14.40;1.00;;;;;;5021495;28;20610;-44
2024/03/30 02:40:20;;;;;;;11.90;11.20;;;14.50;1.00;;;;;;5020403;28;20426;-49
2024/03/30 02:42:45;;;;;;;11.80;11.10;;;14.50;1.00;;;;;;5021323;28;20468;-48
2024/03/30 02:45:12;;;;;;;12.60;11.70;;;14.50;1.00;;;;;;5021624;28;20912;-51
2024/03/30 02:47:38;;;;;;;13.00;12.00;;;14.50;1.00;;;;;;5021914;28;20320;-45
2024/03/30 02:50:04;;;;;;;11.50;10.90;;;14.50;1.00;;;;;;5021333;28;20424;-48
2024/03/30 02:52:30;;;;;;;10.80;10.20;;;14.50;1.00;;;;;;5021558;28;20547;-49
2024/03/30 02:54:55;;;;;;;11.23;10.53;;;14.50;1.00;;;;;;5021105;28;20429;-46
2024/03/30 02:57:21;;;;;;;11.63;10.83;;;14.50;1.00;;;;;;5021415;28;20186;-47
2024/03/30 02:59:47;;;;;;;11.50;10.83;;;14.50;1.00;;;;;;5020501;28;20186;-49
2024/03/30 03:02:12;;;;;;;11.60;10.77;;;14.50;1.00;;;;;;5020597;28;20234;-37
2024/03/30 03:04:38;;;;;;;11.73;11.03;;;14.50;1.00;;;;;;5021489;28;20182;-37
2024/03/30 03:07:05;;;;;;;11.93;11.00;;;14.50;1.00;;;;;;5021016;28;20190;-38
2024/03/30 03:09:31;;;;;;;13.70;11.40;;;14.50;1.00;;;;;;5020337;28;20557;-37
2024/03/30 03:11:57;;;;;;;12.17;11.37;;;14.50;1.00;;;;;;5021323;28;20421;-37
2024/03/30 03:14:23;;;;;;;12.63;11.53;;;14.50;1.00;;;;;;5020978;28;20217;-39
2024/03/30 03:16:49;;;;;;;11.90;10.90;;;14.50;1.00;;;;;;5020849;28;21283;-38
2024/03/30 03:19:14;;;;;;;11.30;10.50;;;14.50;1.00;;;;;;5020378;28;20465;-38
2024/03/30 03:21:40;;;;;;;11.50;10.50;;;14.50;1.00;;;;;;5021061;28;20204;-38
2024/03/30 03:24:06;;;;;;;10.80;10.20;;;14.50;1.00;;;;;;5020599;28;20190;-38
2024/03/30 03:26:31;;;;;;;11.93;11.13;;;14.50;1.00;;;;;;5020321;28;20260;-39
2024/03/30 03:28:57;;;;;;;11.63;10.63;;;14.50;1.00;;;;;;5020013;28;20194;-38
2024/03/30 03:31:23;;;;;;;12.53;11.53;;;14.50;1.00;;;;;;5020366;28;20179;-38
2024/03/30 03:33:49;;;;;;;12.27;11.27;;;14.40;1.00;;;;;;5020931;28;20893;-41
2024/03/30 03:36:18;;;;;;;13.10;11.70;;;14.50;1.00;;;;;;5020730;28;20902;-37
2024/03/30 03:38:44;;;;;;;12.73;11.83;;;14.40;1.00;;;;;;5020557;28;20494;-37
2024/03/30 03:41:09;;;;;;;11.73;10.90;;;14.50;1.00;;;;;;5020739;28;20456;-40
2024/03/30 03:43:40;;;;;;;11.10;10.30;;;14.50;1.00;;;;;;5020536;28;20210;-38
2024/03/30 03:46:06;;;;;;;11.90;11.00;;;14.50;1.00;;;;;;5020432;28;20227;-37
2024/03/30 03:48:32;;;;;;;11.93;11.13;;;14.40;1.00;;;;;;5020144;28;20872;-38
2024/03/30 03:50:57;;;;;;;11.47;10.57;;;14.40;1.00;;;;;;5020818;28;20429;-37
2024/03/30 03:53:23;;;;;;;14.27;11.43;;;14.40;1.00;;;;;;5020373;28;20265;-41
2024/03/30 03:55:48;;;;;;;11.73;10.80;;;14.50;1.00;;;;;;5020167;28;20283;-38
2024/03/30 03:58:14;;;;;;;11.73;10.77;;;14.50;1.00;;;;;;5019918;28;20676;-37
2024/03/30 04:00:40;;;;;;;11.97;11.10;;;14.50;1.00;;;;;;5019951;28;20209;-38
2024/03/30 04:03:06;;;;;;;13.00;11.70;;;14.40;1.00;;;;;;5020210;28;20233;-38
2024/03/30 04:05:32;;;;;;;11.93;11.03;;;14.50;1.00;;;;;;5019873;28;20220;-49
2024/03/30 04:07:58;;;;;;;12.30;11.17;;;14.40;1.00;;;;;;5020131;28;20445;-48
2024/03/30 04:10:24;;;;;;;12.57;11.60;;;14.40;1.00;;;;;;5020461;28;20799;-37
2024/03/30 04:12:50;;;;;;;12.50;11.67;;;14.40;1.00;;;;;;5020353;28;20194;-39
2024/03/30 04:15:16;;;;;;;12.07;11.07;;;14.40;1.00;;;;;;5019907;28;20186;-37
2024/03/30 04:17:42;;;;;;;12.20;11.10;;;14.40;1.00;;;;;;5020533;28;20465;-38
2024/03/30 04:20:08;;;;;;;11.07;10.10;;;14.40;1.00;;;;;;5020111;28;20708;-37
2024/03/30 04:22:33;;;;;;;11.30;10.20;;;14.30;1.00;;;;;;5020331;28;20593;-39
2024/03/30 04:24:59;;;;;;;11.90;10.77;;;14.30;1.00;;;;;;5019919;28;20536;-39
2024/03/30 04:27:25;;;;;;;11.60;10.60;;;14.30;1.00;;;;;;5020349;28;20194;-38
2024/03/30 04:29:50;;;;;;;12.70;11.80;;;14.30;1.00;;;;;;5019360;28;20703;-37
2024/03/30 04:32:16;;;;;;;12.13;11.23;;;14.20;1.00;;;;;;5020483;28;20218;-38
2024/03/30 04:34:41;;;;;;;13.23;12.20;;;14.20;1.00;;;;;;5020005;28;20234;-37
2024/03/30 04:37:07;;;;;;;12.50;11.40;;;14.30;1.00;;;;;;5018692;28;20185;-37
2024/03/30 04:39:33;;;;;;;12.30;11.50;;;14.30;1.00;;;;;;5022815;28;20543;-37
2024/03/30 04:41:59;;;;;;;12.97;11.90;;;14.30;1.00;;;;;;5023172;28;20206;-37
2024/03/30 04:44:25;;;;;;;12.50;11.43;;;14.30;1.00;;;;;;5023079;28;20424;-37
2024/03/30 04:46:51;;;;;;;11.87;10.97;;;14.30;1.00;;;;;;5023354;28;20774;-37
2024/03/30 04:49:17;;;;;;;12.30;11.27;;;14.30;1.00;;;;;;5022580;28;20425;-37
2024/03/30 04:51:43;;;;;;;12.77;11.67;;;14.20;1.00;;;;;;5023866;28;20417;-37
2024/03/30 04:54:08;;;;;;;13.50;12.20;;;14.20;1.00;;;;;;5024235;28;20762;-41
2024/03/30 04:56:34;;;;;;;13.00;11.90;;;14.30;1.00;;;;;;5023640;28;20293;-38
2024/03/30 04:59:00;;;;;;;13.30;11.80;;;14.30;1.00;;;;;;5022856;28;20576;-38
2024/03/30 05:01:25;;;;;;;11.97;11.10;;;14.30;1.00;;;;;;5023465;28;20613;-40
2024/03/30 05:03:51;;;;;;;12.47;11.50;;;14.30;1.00;;;;;;5023672;28;20214;-38
2024/03/30 05:06:16;;;;;;;12.53;11.53;;;14.30;1.00;;;;;;5023805;28;20197;-50
2024/03/30 05:08:42;;;;;;;13.03;12.03;;;14.40;1.00;;;;;;5024024;28;20205;-51
2024/03/30 05:11:08;;;;;;;11.77;11.17;;;14.50;1.00;;;;;;5023299;28;20221;-50
2024/03/30 05:13:33;;;;;;;12.60;11.80;;;14.50;1.00;;;;;;5023262;28;20308;-51
2024/03/30 05:15:59;;;;;;;12.07;11.03;;;14.60;1.00;;;;;;5023483;28;20252;-48
2024/03/30 05:18:27;;;;;;;12.57;11.37;;;14.60;1.00;;;;;;5023541;28;20695;-51
2024/03/30 05:21:00;;;;;;;12.83;11.80;;;14.60;1.00;;;;;;5023599;28;20185;-52
2024/03/30 05:23:26;;;;;;;12.17;11.13;;;14.60;1.00;;;;;;5023274;28;20471;-51
2024/03/30 05:25:53;;;;;;;12.33;11.20;;;14.60;1.00;;;;;;5022676;28;20795;-50
2024/03/30 05:28:22;;;;;;;12.07;11.13;;;14.60;1.00;;;;;;5022860;28;20441;-50
2024/03/30 05:30:50;;;;;;;12.13;11.30;;;14.60;1.00;;;;;;5022556;28;20437;-51
2024/03/30 05:33:16;;;;;;;12.40;11.33;;;14.60;1.00;;;;;;5023376;28;20429;-46
2024/03/30 05:35:41;;;;;;;12.10;11.10;;;14.50;1.00;;;;;;5022780;28;20780;-48
2024/03/30 05:38:07;;;;;;;12.93;12.00;;;14.50;1.00;;;;;;5022978;28;20421;-50
2024/03/30 05:40:36;;;;;;;12.20;11.40;;;14.50;1.00;;;;;;5022723;28;20272;-50
2024/03/30 05:43:02;;;;;;;13.23;11.93;;;14.50;1.00;;;;;;5022755;28;21195;-51
2024/03/30 05:45:28;;;;;;;13.00;11.80;;;14.50;1.00;;;;;;5022575;28;20433;-49
2024/03/30 05:47:55;;;;;;;12.03;11.23;;;14.50;1.00;;;;;;5023052;28;21477;-50
2024/03/30 05:50:24;;;;;;;12.77;11.63;;;14.50;1.00;;;;;;5022842;28;20575;-45
2024/03/30 05:52:50;;;;;;;12.43;11.53;;;14.50;1.00;;;;;;5022176;28;20437;-37
2024/03/30 05:55:16;;;;;;;11.60;10.73;;;14.40;1.00;;;;;;5022854;28;20417;-39
2024/03/30 05:57:42;;;;;;;12.23;11.10;;;14.50;1.00;;;;;;5022943;28;20436;-41
2024/03/30 06:00:12;;;;;;;12.70;11.50;;;14.50;1.00;;;;;;5020917;28;20190;-37
2024/03/30 06:02:38;;;;;;;14.73;11.80;;;14.50;1.00;;;;;;5020994;28;20538;-37
2024/03/30 06:05:04;;;;;;;12.43;11.53;;;14.60;1.00;;;;;;5022087;28;20440;-37
2024/03/30 06:07:30;;;;;;;11.90;11.00;;;14.50;1.00;;;;;;5022388;28;20417;-39
2024/03/30 06:09:56;;;;;;;12.50;11.60;;;14.60;1.00;;;;;;5022587;28;20440;-38
2024/03/30 06:12:22;;;;;;;14.23;11.50;;;14.60;1.00;;;;;;5022530;28;21387;-38
2024/03/30 06:14:48;;;;;;;16.33;12.30;;;14.50;1.00;;;;;;5022320;28;20194;-37
2024/03/30 06:17:14;;;;;;;12.20;11.40;;;14.50;1.00;;;;;;5021949;28;20234;-37
2024/03/30 06:19:42;;;;;;;12.53;11.40;;;14.50;1.00;;;;;;5022151;28;20524;-38
2024/03/30 06:22:08;;;;;;;11.93;11.03;;;14.60;1.00;;;;;;5022155;28;20570;-37
2024/03/30 06:24:36;;;;;;;12.47;11.37;;;14.60;1.00;;;;;;5022245;28;20450;-38
2024/03/30 06:27:03;;;;;;;12.40;11.17;;;14.60;1.00;;;;;;5022178;28;20480;-36
2024/03/30 06:29:29;;;;;;;11.90;11.10;;;14.60;1.00;;;;;;5020793;28;21194;-39
2024/03/30 06:31:54;;;;;;;13.27;11.10;;;14.70;1.00;;;;;;5019241;28;20556;-37
2024/03/30 06:34:20;;;;;;;14.10;11.20;;;14.70;1.00;;;;;;5021511;28;20257;-38
2024/03/30 06:36:46;;;;;;;13.20;11.70;;;14.70;1.00;;;;;;5021591;28;20655;-37
2024/03/30 06:39:11;;;;;;;11.93;10.83;;;14.70;1.00;;;;;;5020965;28;20182;-37
2024/03/30 06:44:21;;;;;;;12.70;11.57;;;14.80;1.00;;;;;;5019608;28;20201;-49
2024/03/30 06:46:46;;;;;;;12.73;11.40;;;14.90;1.00;;;;;;5020382;28;20417;-49
2024/03/30 06:49:12;;;;;;;11.97;11.17;;;14.90;1.00;;;;;;5020693;28;20179;-52
2024/03/30 06:51:38;;;;;;;11.97;11.10;;;15.00;1.00;;;;;;5020718;28;20257;-47
2024/03/30 06:54:03;;;;;;;12.27;11.30;;;15.00;1.00;;;;;;5020946;28;20625;-47
2024/03/30 06:56:29;;;;;;;12.93;11.93;;;15.10;1.00;;;;;;5020589;28;20296;-46
2024/03/30 06:58:55;;;;;;;12.63;11.53;;;15.20;1.00;;;;;;5020540;28;20217;-47
2024/03/30 07:01:20;;;;;;;12.87;11.77;;;15.20;1.00;;;;;;5019866;28;20687;-48
2024/03/30 07:03:52;;;;;;;12.17;11.13;;;15.30;1.00;;;;;;5020317;28;20209;-49
2024/03/30 07:06:18;;;;;;;16.40;11.33;;;15.30;1.00;;;;;;5020487;28;20170;-46
2024/03/30 07:08:44;;;;;;;12.40;11.33;;;15.40;1.00;;;;;;5020575;28;20414;-48
2024/03/30 07:11:13;;;;;;;12.13;11.10;;;15.40;1.00;;;;;;5019190;28;20780;-51
2024/03/30 07:13:41;;;;;;;16.43;12.03;;;15.40;1.00;;;;;;5018710;28;20433;-52
2024/03/30 07:16:07;;;;;;;12.30;11.00;;;15.40;1.00;;;;;;5019489;28;20421;-49
2024/03/30 07:18:34;;;;;;;13.73;11.30;;;15.40;1.00;;;;;;5015959;28;20560;-54
2024/03/30 07:20:59;;;;;;;12.50;11.30;;;15.40;1.00;;;;;;5021253;28;20499;-47
2024/03/30 07:23:25;;;;;;;12.87;11.57;;;15.40;1.00;;;;;;5019793;28;20600;-53
2024/03/30 07:25:51;;;;;;;12.63;11.50;;;15.50;1.00;;;;;;5019474;28;20187;-49
2024/03/30 07:28:17;;;;;;;16.60;12.33;;;15.60;1.00;;;;;;5020752;28;20471;-44
2024/03/30 07:30:43;;;;;;;14.50;11.80;;;15.70;1.00;;;;;;5020500;28;20260;-50
2024/03/30 07:33:09;;;;;;;13.63;12.23;;;15.80;1.00;;;;;;5020330;28;20186;-47
2024/03/30 07:35:35;;;;;;;14.17;11.60;;;15.80;1.00;;;;;;5020186;28;20798;-52
2024/03/30 07:38:01;;;;;;;12.93;11.50;;;16.00;1.00;;;;;;5019102;28;20324;-47
2024/03/30 07:40:27;;;;;;;15.37;12.10;;;16.10;1.00;;;;;;5019440;28;20771;-49
2024/03/30 07:42:52;;;;;;;12.33;11.17;;;16.10;1.00;;;;;;5020341;28;20457;-38
2024/03/30 07:45:18;;;;;;;13.50;11.67;;;16.20;1.00;;;;;;5019812;28;20187;-48
2024/03/30 07:47:44;;;;;;;12.70;11.43;;;16.30;1.00;;;;;;5018045;28;20231;-37
2024/03/30 07:50:10;;;;;;;12.23;11.20;;;16.50;1.00;;;;;;5018643;28;20872;-36
2024/03/30 07:52:35;;;;;;;14.63;11.60;;;16.60;1.00;;;;;;5017840;28;20520;-37
2024/03/30 07:55:01;;;;;;;12.47;11.13;;;16.70;1.00;;;;;;5016168;28;20463;-39
2024/03/30 07:57:27;;;;;;;15.90;11.80;;;16.80;1.00;;;;;;5017309;28;20182;-38
2024/03/30 07:59:53;;;;;;;13.87;12.17;;;17.00;1.00;;;;;;5020237;28;20550;-39
2024/03/30 08:02:18;;;;;;;16.10;9.90;;;17.10;1.00;;;;;;5019129;28;20221;-38
2024/03/30 08:04:44;;;;;;;16.17;11.90;;;17.20;1.00;;;;;;5020315;28;20193;-37
2024/03/30 08:07:10;;;;;;;14.10;12.73;;;17.40;1.00;;;;;;5019783;28;20186;-49
2024/03/30 08:09:36;;;;;;;13.30;11.93;;;17.60;99.90;;;;;;5019826;28;20183;-53
2024/03/30 08:12:02;;;;;;;17.70;12.30;;;17.70;99.90;;;;;;5017993;28;22369;-50
2024/03/30 08:14:28;;;;;;;12.23;11.37;;;18.00;99.90;;;;;;5023604;28;20483;-51
2024/03/30 08:16:53;;;;;;;13.20;11.97;;;18.20;99.90;;;;;;5024183;28;20793;-50
2024/03/30 08:19:19;;;;;;;13.00;12.10;;;18.20;99.90;;;;;;5024458;28;20249;-49
2024/03/30 08:21:45;;;;;;;13.63;12.10;;;18.30;99.90;;;;;;5023987;28;20202;-48
2024/03/30 08:24:11;;;;;;;12.57;11.37;;;18.60;99.90;;;;;;5024330;28;20996;-50
2024/03/30 08:26:36;;;;;;;17.53;13.03;;;18.70;99.90;;;;;;5024165;28;20479;-51
2024/03/30 08:29:03;;;;;;;14.20;12.70;;;18.80;99.90;;;;;;5024184;28;20186;-47
2024/03/30 08:31:28;;;;;;;19.63;13.13;;;18.90;99.90;;;;;;5022479;28;20248;-50
2024/03/30 08:33:55;;;;;;;15.50;12.33;;;19.10;99.90;;;;;;5023298;28;20549;-41
2024/03/30 08:36:21;;;;;;;16.23;12.70;;;19.40;99.90;;;;;;5022950;28;20174;-45
2024/03/30 08:38:47;;;;;;;14.60;13.10;;;19.60;99.90;;;;;;5023184;28;21041;-52
2024/03/30 08:41:13;;;;;;;15.97;12.63;;;19.90;99.90;;;;;;5022650;28;20535;-50
2024/03/30 08:43:38;;;;;;;19.80;13.07;;;20.20;99.90;;;;;;5021177;28;20206;-48
2024/03/30 08:46:04;;;;;;;18.33;11.30;;;20.30;99.90;;;;;;5021017;28;20182;-47
2024/03/30 08:48:33;;;;;;;14.47;12.33;;;20.50;99.90;;;;;;5020925;28;20261;-49
2024/03/30 08:50:59;;;;;;;13.90;12.50;;;20.50;99.90;;;;;;5020885;28;20183;-50
2024/03/30 08:53:25;;;;;;;13.07;11.00;;;20.70;99.90;;;;;;5021205;28;20428;-50
2024/03/30 08:56:00;;;;;;;14.70;12.10;;;21.00;99.90;;;;;;5019513;28;20516;-54
2024/03/30 08:58:27;;;;;;;18.17;11.83;;;21.10;99.90;;;;;;5022243;28;20182;-47
2024/03/30 09:00:53;;;;;;;17.00;12.00;;;21.20;99.90;;;;;;5023366;28;20515;-48
2024/03/30 09:03:19;;;;;;;15.90;11.93;;;21.40;99.90;;;;;;5022135;28;20546;-51
2024/03/30 09:05:45;;;;;;;14.73;11.73;;;21.70;99.90;;;;;;5022786;28;20439;-49
2024/03/30 09:08:11;;;;;;;13.90;12.30;;;21.80;99.90;;;;;;5022656;28;20420;-49
2024/03/30 09:10:37;;;;;;;21.23;13.03;;;21.90;99.90;;;;;;5022397;28;20425;-49
2024/03/30 09:13:03;;;;;;;18.10;12.00;;;22.00;99.90;;;;;;5022241;28;20522;-47
2024/03/30 09:15:29;;;;;;;20.27;13.27;;;22.20;99.90;;;;;;5022161;28;20198;-51
2024/03/30 09:17:55;;;;;;;17.40;12.90;;;22.40;99.90;;;;;;5022234;28;20465;-53
2024/03/30 09:20:20;;;;;;;20.63;11.47;;;22.80;99.90;;;;;;5022578;28;20277;-49
2024/03/30 09:22:46;;;;;;;22.10;13.03;;;23.00;99.90;;;;;;5022125;28;21024;-50
2024/03/30 09:25:14;;;;;;;18.53;12.97;;;23.10;99.90;;;;;;5022059;28;20573;-48
2024/03/30 09:27:43;;;;;;;25.03;13.60;;;23.30;99.90;;;;;;5020665;28;20769;-50
2024/03/30 09:30:10;;;;;;;22.07;14.80;;;23.40;99.90;;;;;;5022391;28;20926;-38
2024/03/30 09:32:39;;;;;;;22.27;13.23;;;23.60;99.90;;;;;;5021743;28;20917;-39
2024/03/30 09:35:08;;;;;;;18.73;14.83;;;23.90;99.90;;;;;;5022293;28;20620;-41
2024/03/30 09:37:34;;;;;;;18.80;12.97;;;24.10;99.90;;;;;;5022422;28;20452;-40
2024/03/30 09:40:00;;;;;;;28.60;13.93;;;24.30;99.90;;;;;;5022074;28;20935;-39
2024/03/30 09:42:36;;;;;;;23.80;14.93;;;24.30;99.90;;;;;;5021919;28;20468;-40
2024/03/30 09:45:02;;;;;;;28.50;14.37;;;24.30;99.90;;;;;;5022009;28;20683;-39
2024/03/30 09:47:30;;;;;;;22.17;14.30;;;24.50;99.90;;;;;;5022170;28;20421;-41
2024/03/30 09:50:00;;;;;;;34.43;17.50;;;24.70;99.90;;;;;;5021688;28;20910;-42
2024/03/30 09:52:29;;;;;;;39.50;19.93;;;24.90;99.90;;;;;;5021741;28;20608;-38
2024/03/30 09:55:04;;;;;;;28.67;13.83;;;24.80;99.90;;;;;;5021901;28;20777;-44
2024/03/30 09:57:31;;;;;;;32.07;15.73;;;25.00;99.90;;;;;;5021720;28;20780;-38
2024/03/30 09:59:57;;;;;;;32.63;14.00;;;25.20;99.90;;;;;;5022141;28;20453;-50
2024/03/30 10:02:22;;;;;;;30.70;15.10;;;25.20;99.90;;;;;;5021740;28;20610;-47
2024/03/30 10:04:48;;;;;;;47.00;17.10;;;25.40;99.90;;;;;;5020337;28;20183;-52
2024/03/30 10:07:27;;;;;;;27.93;16.40;;;25.40;99.90;;;;;;5021143;28;20186;-51
2024/03/30 10:09:58;;;;;;;39.27;16.30;;;25.60;99.90;;;;;;5021795;28;20600;-48
2024/03/30 10:12:36;;;;;;;29.23;14.87;;;26.00;99.90;;;;;;5021533;28;20479;-47
2024/03/30 10:15:05;;;;;;;34.80;15.60;;;26.00;99.90;;;;;;5020303;28;20449;-49
2024/03/30 10:17:32;;;;;;;34.93;15.10;;;25.50;99.90;;;;;;5019567;28;20448;-50
2024/03/30 10:19:58;;;;;;;36.00;17.00;;;25.50;99.90;;;;;;5019913;28;20500;-46
2024/03/30 10:22:25;;;;;;;38.03;17.50;;;25.60;99.90;;;;;;5019979;28;20853;-47
2024/03/30 10:24:51;;;;;;;37.13;15.17;;;25.60;99.90;;;;;;5019580;28;20438;-44
2024/03/30 10:27:17;;;;;;;37.20;16.10;;;25.90;99.90;;;;;;5020127;28;20522;-50
2024/03/30 10:29:44;;;;;;;30.17;14.53;;;26.40;99.90;;;;;;5021463;28;20421;-49
2024/03/30 10:32:09;;;;;;;45.20;17.10;;;26.70;99.90;;;;;;5018719;28;20229;-51
2024/03/30 10:34:35;;;;;;;35.77;14.70;;;26.50;99.90;;;;;;5020221;28;21030;-48
2024/03/30 10:37:01;;;;;;;34.70;17.70;;;26.70;99.90;;;;;;5019847;28;20747;-53
2024/03/30 10:39:31;;;;;;;40.20;16.03;;;26.50;99.90;;;;;;5020836;28;20186;-46
2024/03/30 10:41:56;;;;;;;49.80;16.70;;;26.10;99.90;;;;;;5020924;28;20197;-49
2024/03/30 10:44:31;;;;;;;43.83;16.67;;;25.40;99.90;;;;;;5020818;28;20430;-37
2024/03/30 10:46:57;;;;;;;51.57;15.73;;;25.00;99.90;;;;;;5020793;28;20473;-37
2024/03/30 10:49:24;;;;;;;39.57;16.67;;;25.40;99.90;;;;;;5020564;28;20470;-38
2024/03/30 10:51:51;;;;;;;39.77;16.00;;;25.90;99.90;;;;;;5020755;28;20500;-37
2024/03/30 10:54:19;;;;;;;37.57;16.33;;;26.00;99.90;;;;;;5020314;28;20418;-38
2024/03/30 10:56:48;;;;;;;36.00;16.07;;;25.00;99.90;;;;;;5020780;28;20452;-39
2024/03/30 10:59:17;;;;;;;37.63;16.73;;;24.50;99.90;;;;;;5020178;28;20733;-39
2024/03/30 11:01:47;;;;;;;34.47;15.20;;;24.90;99.90;;;;;;5020179;28;20417;-38
2024/03/30 11:04:15;;;;;;;28.67;16.00;;;25.50;99.90;;;;;;5020183;28;20748;-42
2024/03/30 11:06:46;;;;;;;37.07;16.47;;;26.40;99.90;;;;;;5020480;28;20429;-38
2024/03/30 11:09:19;;;;;;;40.43;16.47;;;27.40;99.90;;;;;;5020301;28;20429;-43
2024/03/30 11:11:49;;;;;;;33.73;14.93;;;28.20;99.90;;;;;;5020010;28;20417;-41
2024/03/30 11:14:14;;;;;;;48.67;17.40;;;28.40;99.90;;;;;;5019842;28;20417;-39
2024/03/30 11:16:47;;;;;;;45.67;17.00;;;28.20;99.90;;;;;;5020290;28;20425;-39
2024/03/30 11:19:36;;;;;;;47.70;18.70;;;28.10;99.90;;;;;;5019938;28;20229;-42
2024/03/30 11:22:20;;;;;;;49.83;17.10;;;27.80;99.90;;;;;;5020021;28;20430;-39
2024/03/30 11:24:55;;;;;;;49.53;16.87;;;28.20;99.90;;;;;;5020227;28;20444;-38
2024/03/30 11:27:30;;;;;;;48.93;16.97;;;28.10;99.90;;;;;;5020191;28;20453;-40
2024/03/30 11:30:10;;;;;;;37.00;16.97;;;28.40;99.90;;;;;;5019844;28;20466;-43
2024/03/30 11:32:42;;;;;;;42.97;17.30;;;28.40;99.90;;;;;;5019602;28;20425;-44
2024/03/30 11:35:16;;;;;;;42.67;17.47;;;27.20;99.90;;;;;;5019494;28;20444;-46
2024/03/30 11:37:43;;;;;;;33.97;15.63;;;27.30;99.90;;;;;;5016588;28;20517;-39
2024/03/30 11:40:18;;;;;;;33.20;15.57;;;27.80;99.90;;;;;;5019345;28;20502;-40
2024/03/30 11:43:05;;;;;;;45.33;15.13;;;28.30;99.90;;;;;;5019092;28;20465;-41
2024/03/30 11:45:34;;;;;;;35.27;15.20;;;28.60;99.90;;;;;;5018378;28;20810;-39
2024/03/30 11:48:00;;;;;;;35.60;16.57;;;28.30;99.90;;;;;;5018557;28;20896;-38
2024/03/30 11:50:26;;;;;;;39.17;16.93;;;28.40;99.90;;;;;;5018570;28;20447;-39
2024/03/30 11:52:52;;;;;;;39.53;17.30;;;28.40;99.90;;;;;;5019432;28;20444;-39
2024/03/30 11:55:33;;;;;;;34.33;15.50;;;28.20;99.90;;;;;;5019962;28;20425;-40
2024/03/30 11:58:00;;;;;;;35.60;16.30;;;28.00;99.90;;;;;;5019554;28;20652;-38
2024/03/30 12:00:29;;;;;;;46.77;16.90;;;27.80;99.90;;;;;;5019516;28;20519;-40
2024/03/30 12:02:59;;;;;;;40.80;15.73;;;27.30;99.90;;;;;;5019689;28;20566;-39
2024/03/30 12:05:29;;;;;;;43.63;16.50;;;26.70;99.90;;;;;;5019806;28;20416;-42
2024/03/30 12:07:57;;;;;;;41.30;17.70;;;26.40;99.90;;;;;;5018133;28;20429;-43
2024/03/30 12:10:23;;;;;;;35.13;15.50;;;26.20;99.90;;;;;;5019614;28;20979;-38
2024/03/30 12:12:59;;;;;;;36.27;16.40;;;26.50;99.90;;;;;;5019454;28;20421;-40
2024/03/30 12:15:29;;;;;;;36.37;14.40;;;26.70;99.90;;;;;;5019200;28;20461;-38
2024/03/30 12:17:55;;;;;;;31.87;17.80;;;26.90;99.90;;;;;;5018811;28;20480;-41
2024/03/30 12:20:22;;;;;;;40.17;16.43;;;27.50;99.90;;;;;;5019388;28;20425;-39
2024/03/30 12:22:47;;;;;;;39.40;16.50;;;27.80;99.90;;;;;;5018961;28;20536;-38
2024/03/30 12:25:15;;;;;;;37.37;16.27;;;27.80;99.90;;;;;;5018280;28;20424;-50
2024/03/30 12:27:43;;;;;;;34.60;16.80;;;27.00;99.90;;;;;;5019268;28;20183;-53
2024/03/30 12:30:09;;;;;;;47.07;17.83;;;26.50;99.90;;;;;;5018975;28;20437;-53
2024/03/30 12:32:35;;;;;;;49.83;17.20;;;26.20;99.90;;;;;;5019978;28;20935;-52
2024/03/30 12:35:01;;;;;;;37.17;16.80;;;25.50;99.90;;;;;;5020268;28;20425;-53